ěÝzenÝ letovÚho provozu ╚eskÚ republiky
Letiste: LKTB Aktualizace: 19.06.2024 03:30:41  UTC
 METAR LKTB 19.06. 03:30 ...
METAR LKTB 190330Z 08004KT CAVOK 21/16 Q1012 NOSIG=
 TAF LKTB 18.06. 23:00 ...
TAF LKTB 182300Z 1900/2000 09006KT CAVOK      BECMG 1903/1905 15008KT      BECMG 1915/1917 33008KT      TEMPO 1917/1921 35012G26KT 3000 TSRA SCT025CB=